createdAt,value
2019-05-11T00:01:03.086Z,12.40
2019-05-11T00:03:31.930Z,12.40
2019-05-11T00:06:00.825Z,12.10
2019-05-11T00:08:29.805Z,12.00
2019-05-11T00:10:58.697Z,12.10
2019-05-11T00:13:27.608Z,12.20
2019-05-11T00:15:56.529Z,12.40
2019-05-11T00:18:25.384Z,12.40
2019-05-11T00:20:54.412Z,12.40
2019-05-11T00:23:23.382Z,12.40
2019-05-11T00:25:52.320Z,12.60
2019-05-11T00:28:21.396Z,12.70
2019-05-11T00:30:50.286Z,12.70
2019-05-11T00:33:19.215Z,12.60
2019-05-11T00:35:48.037Z,12.50
2019-05-11T00:38:16.912Z,12.40
2019-05-11T00:40:45.813Z,12.30
2019-05-11T00:43:14.729Z,12.50
2019-05-11T00:45:43.793Z,12.60
2019-05-11T00:48:16.361Z,12.60
2019-05-11T00:50:45.193Z,12.30
2019-05-11T00:53:14.273Z,12.20
2019-05-11T00:55:43.288Z,12.00
2019-05-11T00:58:12.289Z,11.90
2019-05-11T01:00:41.204Z,11.90
2019-05-11T01:03:10.078Z,11.90
2019-05-11T01:05:39.117Z,12.00
2019-05-11T01:08:08.067Z,12.10
2019-05-11T01:10:42.264Z,12.10
2019-05-11T01:13:07.604Z,12.20
2019-05-11T01:15:36.506Z,12.10
2019-05-11T01:18:05.420Z,12.00
2019-05-11T01:20:53.537Z,12.00
2019-05-11T01:23:22.383Z,12.10
2019-05-11T01:25:51.582Z,12.10
2019-05-11T01:28:20.528Z,12.00
2019-05-11T01:30:49.404Z,11.80
2019-05-11T01:33:18.162Z,11.70
2019-05-11T01:35:46.995Z,11.50
2019-05-11T01:38:15.842Z,11.50
2019-05-11T01:40:57.590Z,11.50
2019-05-11T01:43:15.299Z,11.50
2019-05-11T01:45:44.133Z,11.40
2019-05-11T01:48:13.041Z,11.40
2019-05-11T01:50:42.013Z,11.40
2019-05-11T01:53:10.788Z,11.30
2019-05-11T01:55:39.687Z,11.20
2019-05-11T01:58:08.697Z,11.20
2019-05-11T02:00:37.522Z,11.20
2019-05-11T02:03:06.361Z,11.20
2019-05-11T02:05:35.299Z,11.30
2019-05-11T02:08:04.272Z,11.50
2019-05-11T02:10:33.285Z,11.30
2019-05-11T02:13:02.304Z,11.40
2019-05-11T02:15:31.314Z,11.10
2019-05-11T02:18:00.185Z,11.10
2019-05-11T02:20:29.133Z,10.90
2019-05-11T02:22:58.094Z,10.60
2019-05-11T02:25:27.412Z,10.50
2019-05-11T02:27:56.296Z,10.50
2019-05-11T02:30:25.327Z,10.40
2019-05-11T02:32:54.341Z,10.40
2019-05-11T02:35:23.353Z,10.40
2019-05-11T02:37:52.325Z,10.30
2019-05-11T02:40:21.640Z,10.40
2019-05-11T02:42:50.544Z,10.30
2019-05-11T02:45:37.821Z,10.30
2019-05-11T02:48:07.135Z,10.30
2019-05-11T02:50:38.022Z,10.20
2019-05-11T02:53:07.270Z,10.00
2019-05-11T02:55:36.355Z,10.00
2019-05-11T02:58:06.300Z,9.90
2019-05-11T03:00:37.981Z,10.00
2019-05-11T03:03:07.037Z,10.10
2019-05-11T03:05:36.031Z,10.30
2019-05-11T03:08:05.055Z,10.40
2019-05-11T03:10:34.174Z,10.50
2019-05-11T03:13:03.066Z,10.60
2019-05-11T03:15:32.185Z,10.70
2019-05-11T03:18:01.297Z,10.90
2019-05-11T03:20:30.266Z,10.80
2019-05-11T03:22:59.170Z,10.80
2019-05-11T03:25:28.067Z,10.80
2019-05-11T03:27:56.867Z,10.90
2019-05-11T03:30:25.808Z,10.90
2019-05-11T03:32:54.970Z,10.90
2019-05-11T03:35:23.958Z,11.00
2019-05-11T03:37:52.811Z,11.10
2019-05-11T03:40:22.299Z,11.00
2019-05-11T03:42:51.080Z,11.00
2019-05-11T03:45:20.093Z,11.00
2019-05-11T03:47:49.002Z,11.00
2019-05-11T03:50:17.960Z,11.00
2019-05-11T03:52:46.837Z,11.00
2019-05-11T03:55:15.800Z,11.00
2019-05-11T03:57:44.584Z,11.00
2019-05-11T04:00:13.984Z,10.90
2019-05-11T04:02:43.061Z,10.90
2019-05-11T04:05:12.765Z,10.80
2019-05-11T04:07:41.800Z,10.70
2019-05-11T04:10:10.806Z,10.70
2019-05-11T04:12:39.712Z,10.80
2019-05-11T04:15:08.752Z,10.90
2019-05-11T04:17:37.644Z,10.80
2019-05-11T04:20:06.972Z,10.60
2019-05-11T04:22:35.974Z,10.40
2019-05-11T04:25:05.594Z,10.40
2019-05-11T04:27:34.392Z,10.50
2019-05-11T04:30:03.316Z,10.60
2019-05-11T04:32:32.231Z,10.70
2019-05-11T04:35:01.078Z,10.70
2019-05-11T04:37:29.949Z,10.70
2019-05-11T04:39:58.769Z,10.60
2019-05-11T04:42:27.819Z,10.60
2019-05-11T04:44:56.684Z,10.80
2019-05-11T04:47:25.500Z,10.90
2019-05-11T04:49:54.422Z,10.80
2019-05-11T04:52:23.339Z,10.70
2019-05-11T04:54:52.197Z,10.60
2019-05-11T04:57:21.090Z,10.60
2019-05-11T04:59:50.112Z,10.60
2019-05-11T05:02:18.984Z,10.80
2019-05-11T05:04:47.984Z,10.80
2019-05-11T05:07:17.009Z,10.90
2019-05-11T05:09:45.908Z,10.90
2019-05-11T05:12:15.687Z,11.00
2019-05-11T05:14:44.660Z,10.90
2019-05-11T05:17:13.530Z,10.80
2019-05-11T05:19:42.459Z,10.60
2019-05-11T05:22:11.612Z,10.80
2019-05-11T05:24:40.451Z,10.80
2019-05-11T05:27:09.479Z,10.70
2019-05-11T05:29:38.340Z,10.80
2019-05-11T05:32:07.441Z,11.00
2019-05-11T05:34:36.361Z,11.00
2019-05-11T05:37:05.363Z,11.20
2019-05-11T05:39:34.253Z,11.30
2019-05-11T05:42:03.324Z,11.20
2019-05-11T05:44:32.178Z,11.20
2019-05-11T05:47:01.194Z,11.30
2019-05-11T05:49:30.032Z,11.20
2019-05-11T05:51:58.858Z,11.40
2019-05-11T05:54:27.989Z,11.50
2019-05-11T05:56:59.913Z,11.70
2019-05-11T05:59:29.188Z,11.50
2019-05-11T06:01:57.950Z,11.40
2019-05-11T06:04:26.816Z,11.60
2019-05-11T06:06:55.618Z,11.70
2019-05-11T06:09:24.470Z,11.90
2019-05-11T06:11:53.407Z,12.00
2019-05-11T06:14:22.286Z,11.80
2019-05-11T06:16:51.151Z,11.80
2019-05-11T06:19:20.044Z,11.90
2019-05-11T06:21:49.030Z,11.90
2019-05-11T06:24:17.943Z,12.10
2019-05-11T06:26:46.801Z,12.20
2019-05-11T06:29:15.609Z,12.30
2019-05-11T06:31:44.442Z,12.30
2019-05-11T06:34:13.375Z,12.40
2019-05-11T06:36:42.280Z,12.30
2019-05-11T06:39:11.152Z,12.40
2019-05-11T06:41:40.075Z,12.70
2019-05-11T06:44:08.956Z,12.80
2019-05-11T06:46:37.820Z,13.00
2019-05-11T06:49:06.727Z,12.70
2019-05-11T06:51:39.683Z,12.80
2019-05-11T06:54:06.285Z,12.90
2019-05-11T06:56:35.127Z,13.00
2019-05-11T06:59:03.942Z,12.90
2019-05-11T07:01:32.839Z,12.90
2019-05-11T07:04:01.715Z,13.00
2019-05-11T07:06:30.893Z,13.10
2019-05-11T07:08:59.803Z,13.20
2019-05-11T07:11:28.620Z,13.50
2019-05-11T07:13:57.570Z,13.70
2019-05-11T07:16:26.485Z,13.80
2019-05-11T07:18:55.297Z,13.70
2019-05-11T07:21:24.119Z,13.70
2019-05-11T07:23:53.054Z,13.70
2019-05-11T07:26:21.951Z,13.70
2019-05-11T07:28:51.236Z,13.80
2019-05-11T07:31:20.263Z,13.70
2019-05-11T07:33:49.269Z,13.60
2019-05-11T07:36:18.324Z,13.50
2019-05-11T07:38:48.761Z,13.80
2019-05-11T07:41:17.972Z,14.00
2019-05-11T07:43:48.499Z,14.30
2019-05-11T07:46:18.206Z,14.30
2019-05-11T07:48:48.055Z,14.40
2019-05-11T07:51:18.315Z,14.40
2019-05-11T07:53:48.621Z,14.50
2019-05-11T07:56:18.759Z,14.30
2019-05-11T07:58:48.214Z,14.30
2019-05-11T08:01:18.930Z,14.40
2019-05-11T08:03:48.479Z,14.40
2019-05-11T08:06:18.285Z,14.60
2019-05-11T08:08:49.052Z,14.70
2019-05-11T08:11:18.422Z,14.60
2019-05-11T08:13:48.108Z,14.50
2019-05-11T08:16:18.490Z,14.60
2019-05-11T08:18:49.606Z,14.60
2019-05-11T08:21:18.989Z,14.60
2019-05-11T08:23:48.483Z,14.70
2019-05-11T08:26:19.028Z,15.00
2019-05-11T08:28:48.576Z,15.00
2019-05-11T08:31:18.759Z,15.00
2019-05-11T08:33:48.267Z,15.10
2019-05-11T08:36:18.445Z,15.20
2019-05-11T08:38:48.402Z,15.30
2019-05-11T08:41:18.444Z,15.30
2019-05-11T08:43:48.178Z,14.90
2019-05-11T08:46:18.558Z,15.10
2019-05-11T08:48:47.950Z,14.90
2019-05-11T08:51:18.646Z,15.30
2019-05-11T08:53:48.163Z,15.50
2019-05-11T08:56:18.855Z,15.20
2019-05-11T08:58:49.197Z,15.30
2019-05-11T09:01:18.628Z,15.50
2019-05-11T09:03:47.896Z,15.60
2019-05-11T09:06:17.947Z,15.60
2019-05-11T09:08:49.266Z,15.70
2019-05-11T09:11:19.018Z,15.90
2019-05-11T09:13:48.981Z,15.80
2019-05-11T09:16:18.921Z,16.10
2019-05-11T09:18:48.282Z,15.70
2019-05-11T09:21:18.983Z,16.00
2019-05-11T09:23:48.618Z,15.90
2019-05-11T09:26:18.450Z,15.80
2019-05-11T09:28:47.846Z,16.00
2019-05-11T09:31:18.856Z,16.00
2019-05-11T09:33:48.012Z,16.10
2019-05-11T09:36:18.046Z,16.00
2019-05-11T09:38:48.892Z,15.80
2019-05-11T09:41:18.286Z,16.30
2019-05-11T09:43:48.286Z,16.60
2019-05-11T09:46:18.891Z,16.60
2019-05-11T09:48:48.530Z,16.20
2019-05-11T09:51:18.575Z,16.00
2019-05-11T09:53:48.577Z,16.30
2019-05-11T09:56:20.352Z,16.60
2019-05-11T09:58:50.380Z,16.70
2019-05-11T10:04:42.455Z,16.60
2019-05-11T10:07:15.422Z,16.30
2019-05-11T10:09:47.834Z,16.10
2019-05-11T10:12:18.161Z,16.10
2019-05-11T10:14:48.582Z,16.20
2019-05-11T10:17:18.279Z,16.20
2019-05-11T10:19:49.520Z,16.50
2019-05-11T10:22:18.565Z,16.20
2019-05-11T10:24:47.796Z,15.90
2019-05-11T10:27:18.812Z,16.10
2019-05-11T10:29:48.351Z,16.00
2019-05-11T10:32:18.265Z,15.90
2019-05-11T10:34:47.868Z,16.10
2019-05-11T10:37:17.658Z,16.30
2019-05-11T10:39:48.762Z,16.50
2019-05-11T10:42:17.997Z,16.60
2019-05-11T10:44:47.838Z,16.40
2019-05-11T10:47:18.475Z,16.50
2019-05-11T10:49:48.466Z,16.10
2019-05-11T10:52:18.133Z,16.20
2019-05-11T10:54:47.844Z,16.20
2019-05-11T10:57:18.924Z,16.40
2019-05-11T10:59:48.840Z,16.50
2019-05-11T11:02:18.565Z,16.60
2019-05-11T11:04:48.572Z,16.50
2019-05-11T11:07:19.456Z,16.40
2019-05-11T11:09:50.339Z,16.40
2019-05-11T11:12:19.243Z,16.70
2019-05-11T11:14:48.324Z,16.80
2019-05-11T11:17:19.143Z,16.70
2019-05-11T11:19:48.605Z,16.60
2019-05-11T11:22:36.194Z,16.70
2019-05-11T11:24:48.355Z,16.50
2019-05-11T11:27:18.515Z,16.60
2019-05-11T11:29:47.771Z,16.70
2019-05-11T11:32:18.421Z,16.30
2019-05-11T11:34:48.510Z,16.50
2019-05-11T11:37:17.642Z,16.40
2019-05-11T11:39:47.639Z,16.50
2019-05-11T11:42:18.515Z,16.50
2019-05-11T11:44:48.335Z,16.50
2019-05-11T11:47:21.353Z,16.40
2019-05-11T11:49:48.136Z,16.90
2019-05-11T11:52:18.794Z,17.00
2019-05-11T11:54:48.019Z,17.00
2019-05-11T11:57:18.211Z,16.90
2019-05-11T11:59:48.169Z,16.60
2019-05-11T12:02:19.101Z,16.60
2019-05-11T12:04:48.560Z,16.30
2019-05-11T12:07:17.973Z,16.50
2019-05-11T12:09:48.400Z,16.60
2019-05-11T12:12:18.601Z,16.70
2019-05-11T12:14:48.131Z,16.90
2019-05-11T12:17:18.163Z,17.00
2019-05-11T12:19:47.978Z,16.80
2019-05-11T12:22:18.747Z,16.70
2019-05-11T12:24:48.374Z,16.60
2019-05-11T12:27:18.230Z,16.50
2019-05-11T12:29:47.677Z,16.50
2019-05-11T12:32:23.176Z,16.40
2019-05-11T12:34:51.967Z,16.40
2019-05-11T12:37:22.113Z,16.20
2019-05-11T12:39:51.375Z,16.20
2019-05-11T12:42:20.312Z,16.10
2019-05-11T12:44:49.167Z,16.00
2019-05-11T12:47:24.114Z,15.80
2019-05-11T12:49:48.589Z,16.00
2019-05-11T12:52:18.500Z,16.00
2019-05-11T12:54:47.941Z,15.90
2019-05-11T12:57:18.594Z,15.90
2019-05-11T12:59:48.697Z,15.80
2019-05-11T13:02:18.481Z,15.80
2019-05-11T13:04:47.862Z,16.00
2019-05-11T13:07:19.573Z,16.10
2019-05-11T13:09:48.437Z,16.20
2019-05-11T13:12:18.666Z,16.20
2019-05-11T13:14:48.873Z,16.40
2019-05-11T13:17:18.595Z,15.90
2019-05-11T13:19:48.658Z,15.90
2019-05-11T13:22:18.402Z,16.00
2019-05-11T13:24:48.052Z,16.10
2019-05-11T13:27:18.091Z,15.60
2019-05-11T13:29:48.648Z,15.90
2019-05-11T13:32:18.647Z,16.00
2019-05-11T13:34:48.156Z,16.20
2019-05-11T13:37:18.756Z,16.00
2019-05-11T13:39:50.415Z,16.00
2019-05-11T13:42:19.885Z,16.20
2019-05-11T13:44:49.838Z,16.10
2019-05-11T13:47:18.799Z,16.00
2019-05-11T13:49:48.806Z,16.10
2019-05-11T13:52:18.240Z,15.70
2019-05-11T13:54:48.268Z,15.50
2019-05-11T13:57:18.212Z,15.80
2019-05-11T13:59:47.711Z,15.90
2019-05-11T14:02:18.029Z,15.50
2019-05-11T14:04:48.169Z,15.50
2019-05-11T14:07:18.732Z,15.70
2019-05-11T14:09:48.510Z,15.80
2019-05-11T14:12:18.326Z,15.70
2019-05-11T14:14:48.163Z,15.80
2019-05-11T14:17:18.658Z,15.30
2019-05-11T14:19:49.375Z,15.30
2019-05-11T14:22:18.259Z,15.40
2019-05-11T14:24:48.277Z,15.50
2019-05-11T14:27:18.026Z,15.80
2019-05-11T14:29:48.641Z,15.30
2019-05-11T14:32:17.912Z,15.20
2019-05-11T14:34:48.465Z,15.40
2019-05-11T14:37:18.163Z,15.60
2019-05-11T14:39:49.611Z,15.70
2019-05-11T14:42:22.161Z,15.70
2019-05-11T14:44:49.620Z,15.60
2019-05-11T14:47:18.870Z,15.80
2019-05-11T14:49:48.346Z,15.80
2019-05-11T14:52:18.737Z,15.50
2019-05-11T14:54:48.611Z,15.50
2019-05-11T14:57:18.625Z,15.40
2019-05-11T14:59:48.332Z,15.50
2019-05-11T15:02:37.712Z,15.20
2019-05-11T15:05:08.642Z,15.40
2019-05-11T15:07:38.521Z,15.30
2019-05-11T15:10:08.341Z,15.30
2019-05-11T15:12:37.982Z,15.40
2019-05-11T15:15:08.010Z,15.00
2019-05-11T15:17:39.498Z,15.00
2019-05-11T15:20:08.456Z,15.10
2019-05-11T15:22:37.805Z,15.00
2019-05-11T15:25:11.164Z,14.90
2019-05-11T15:27:40.282Z,15.10
2019-05-11T15:30:09.659Z,15.00
2019-05-11T15:32:38.555Z,15.20
2019-05-11T15:35:08.162Z,15.30
2019-05-11T15:37:38.539Z,15.20
2019-05-11T15:40:14.902Z,15.10
2019-05-11T15:42:44.101Z,15.10
2019-05-11T15:45:15.514Z,15.00
2019-05-11T15:47:44.853Z,14.90
2019-05-11T15:50:15.970Z,14.70
2019-05-11T15:52:45.387Z,14.40
2019-05-11T15:55:15.090Z,14.30
2019-05-11T15:57:44.151Z,14.20
2019-05-11T16:00:14.126Z,14.50
2019-05-11T16:02:43.039Z,14.30
2019-05-11T16:05:12.577Z,14.40
2019-05-11T16:07:41.725Z,14.10
2019-05-11T16:10:11.033Z,14.10
2019-05-11T16:12:39.998Z,14.10
2019-05-11T16:15:11.015Z,13.90
2019-05-11T16:17:40.495Z,13.90
2019-05-11T16:20:11.885Z,13.70
2019-05-11T16:22:40.935Z,13.70
2019-05-11T16:25:10.343Z,13.80
2019-05-11T16:27:39.267Z,13.90
2019-05-11T16:30:09.313Z,14.10
2019-05-11T16:32:38.701Z,14.10
2019-05-11T16:35:11.953Z,14.10
2019-05-11T16:37:40.963Z,13.90
2019-05-11T16:40:10.434Z,14.10
2019-05-11T16:42:39.465Z,14.00
2019-05-11T16:45:09.406Z,13.90
2019-05-11T16:47:39.090Z,14.00
2019-05-11T16:50:09.114Z,14.00
2019-05-11T16:52:38.754Z,14.00
2019-05-11T16:55:08.237Z,13.90
2019-05-11T16:57:38.177Z,13.90
2019-05-11T17:00:08.899Z,13.70
2019-05-11T17:02:38.343Z,13.70
2019-05-11T17:05:08.198Z,13.80
2019-05-11T17:07:37.691Z,13.90
2019-05-11T17:10:10.061Z,14.10
2019-05-11T17:12:39.244Z,14.10
2019-05-11T17:15:09.039Z,14.10
2019-05-11T17:17:38.183Z,13.80
2019-05-11T17:20:08.112Z,13.90
2019-05-11T17:22:38.885Z,14.00
2019-05-11T17:25:08.564Z,14.10
2019-05-11T17:27:37.980Z,14.20
2019-05-11T17:30:08.748Z,13.90
2019-05-11T17:32:38.425Z,13.70
2019-05-11T17:35:08.467Z,13.70
2019-05-11T17:37:38.213Z,13.80
2019-05-11T17:40:09.149Z,13.90
2019-05-11T17:42:38.341Z,14.10
2019-05-11T17:45:08.154Z,14.30
2019-05-11T17:47:38.851Z,14.40
2019-05-11T17:50:08.521Z,14.70
2019-05-11T17:52:38.416Z,14.90
2019-05-11T17:55:07.814Z,15.00
2019-05-11T17:57:38.211Z,14.60
2019-05-11T18:00:08.119Z,14.40
2019-05-11T18:02:39.014Z,14.10
2019-05-11T18:05:09.099Z,14.20
2019-05-11T18:07:38.780Z,14.40
2019-05-11T18:10:08.387Z,14.50
2019-05-11T18:12:39.072Z,14.50
2019-05-11T18:15:13.599Z,14.40
2019-05-11T18:17:42.470Z,14.60
2019-05-11T18:20:17.572Z,14.50
2019-05-11T18:22:42.583Z,14.50
2019-05-11T18:25:13.939Z,14.50
2019-05-11T18:27:42.445Z,14.50
2019-05-11T18:30:11.383Z,14.60
2019-05-11T18:32:40.383Z,14.80
2019-05-11T18:35:09.401Z,14.90
2019-05-11T18:37:38.883Z,14.90
2019-05-11T18:40:08.807Z,14.80
2019-05-11T18:42:38.269Z,14.80
2019-05-11T18:45:08.459Z,14.70
2019-05-11T18:47:38.201Z,14.60
2019-05-11T18:50:08.359Z,14.70
2019-05-11T18:52:37.356Z,14.60
2019-05-11T18:55:08.452Z,14.20
2019-05-11T18:57:38.412Z,14.40
2019-05-11T19:00:08.359Z,14.50
2019-05-11T19:02:38.486Z,14.30
2019-05-11T19:05:08.167Z,14.10
2019-05-11T19:07:38.746Z,13.70
2019-05-11T19:10:08.804Z,13.70
2019-05-11T19:12:37.874Z,13.50
2019-05-11T19:15:07.909Z,13.30
2019-05-11T19:17:38.481Z,13.10
2019-05-11T19:20:28.310Z,13.00
2019-05-11T19:22:58.981Z,12.90
2019-05-11T19:25:28.221Z,12.90
2019-05-11T19:27:58.946Z,13.00
2019-05-11T19:30:28.169Z,12.90
2019-05-11T19:32:58.981Z,12.90
2019-05-11T19:35:28.628Z,12.90
2019-05-11T19:37:58.372Z,12.90
2019-05-11T19:40:28.263Z,12.80
2019-05-11T19:42:59.078Z,12.90
2019-05-11T19:45:29.456Z,12.70
2019-05-11T19:47:58.668Z,12.50
2019-05-11T19:50:27.744Z,12.30
2019-05-11T19:52:57.957Z,12.20
2019-05-11T19:55:28.573Z,12.20
2019-05-11T19:57:57.698Z,12.10
2019-05-11T20:00:26.670Z,12.10
2019-05-11T20:02:55.686Z,12.20
2019-05-11T20:05:24.574Z,12.10
2019-05-11T20:07:53.632Z,12.00
2019-05-11T20:10:22.695Z,12.00
2019-05-11T20:12:51.592Z,12.00
2019-05-11T20:15:20.748Z,12.00
2019-05-11T20:17:55.319Z,12.10
2019-05-11T20:20:24.509Z,12.00
2019-05-11T20:22:53.652Z,12.20
2019-05-11T20:25:22.738Z,12.20
2019-05-11T20:27:51.614Z,12.00
2019-05-11T20:30:20.668Z,12.00
2019-05-11T20:32:49.704Z,11.90
2019-05-11T20:35:19.115Z,12.00
2019-05-11T20:37:48.170Z,12.00
2019-05-11T20:40:18.312Z,12.00
2019-05-11T20:42:48.562Z,11.80
2019-05-11T20:45:18.847Z,11.80
2019-05-11T20:47:48.930Z,11.80
2019-05-11T20:50:18.671Z,11.90
2019-05-11T20:52:48.446Z,11.80
2019-05-11T20:55:18.334Z,11.90
2019-05-11T20:57:48.464Z,11.90
2019-05-11T21:00:18.865Z,11.90
2019-05-11T21:02:48.868Z,11.90
2019-05-11T21:05:18.509Z,11.90
2019-05-11T21:07:51.458Z,11.80
2019-05-11T21:10:20.776Z,11.60
2019-05-11T21:12:49.951Z,11.60
2019-05-11T21:15:19.422Z,11.50
2019-05-11T21:17:50.723Z,11.70
2019-05-11T21:20:19.717Z,11.60
2019-05-11T21:22:49.077Z,11.60
2019-05-11T21:25:18.559Z,11.70
2019-05-11T21:27:48.714Z,11.70
2019-05-11T21:30:18.446Z,11.70
2019-05-11T21:32:48.294Z,11.70
2019-05-11T21:35:19.205Z,11.60
2019-05-11T21:37:48.803Z,11.60
2019-05-11T21:40:17.928Z,11.60
2019-05-11T21:42:47.625Z,11.60
2019-05-11T21:45:18.639Z,11.50
2019-05-11T21:47:48.976Z,11.50
2019-05-11T21:50:23.513Z,11.60
2019-05-11T21:52:54.237Z,11.80
2019-05-11T21:55:23.105Z,11.90
2019-05-11T21:57:52.925Z,11.80
2019-05-11T22:00:27.976Z,11.60
2019-05-11T22:02:56.283Z,11.90
2019-05-11T22:05:25.531Z,12.10
2019-05-11T22:07:54.591Z,12.30
2019-05-11T22:10:23.576Z,12.50
2019-05-11T22:12:52.802Z,12.70
2019-05-11T22:15:21.840Z,12.70
2019-05-11T22:17:50.744Z,13.00
2019-05-11T22:20:19.794Z,12.70
2019-05-11T22:22:48.648Z,12.90
2019-05-11T22:25:18.238Z,12.90
2019-05-11T22:27:48.739Z,12.20
2019-05-11T22:30:18.637Z,12.20
2019-05-11T22:32:47.871Z,12.40
2019-05-11T22:35:18.342Z,12.50
2019-05-11T22:37:49.055Z,12.40
2019-05-11T22:40:18.226Z,12.20
2019-05-11T22:42:47.191Z,12.30
2019-05-11T22:45:18.446Z,12.20
2019-05-11T22:47:48.130Z,12.30
2019-05-11T22:50:18.694Z,12.40
2019-05-11T22:52:48.499Z,12.60
2019-05-11T22:55:18.803Z,12.20
2019-05-11T22:57:48.655Z,12.30
2019-05-11T23:00:22.226Z,12.10
2019-05-11T23:02:51.166Z,11.80
2019-05-11T23:05:20.346Z,11.80
2019-05-11T23:07:49.175Z,11.90
2019-05-11T23:10:18.101Z,11.60
2019-05-11T23:12:48.261Z,11.40
2019-05-11T23:15:19.226Z,11.70
2019-05-11T23:17:48.255Z,11.80
2019-05-11T23:20:17.283Z,11.70
2019-05-11T23:22:57.785Z,11.70
2019-05-11T23:25:19.806Z,11.90
2019-05-11T23:27:49.092Z,12.00
2019-05-11T23:30:20.058Z,11.90
2019-05-11T23:32:49.573Z,11.80
2019-05-11T23:35:19.172Z,11.60
2019-05-11T23:37:49.609Z,11.80
2019-05-11T23:40:20.116Z,12.00
2019-05-11T23:42:49.508Z,12.10
2019-05-11T23:45:19.190Z,12.20
2019-05-11T23:47:48.910Z,12.30
2019-05-11T23:50:19.161Z,12.20
2019-05-11T23:52:53.236Z,11.90
2019-05-11T23:55:19.542Z,12.10
2019-05-11T23:57:48.999Z,12.00
